Terminal Aerodrome Forecast
Issued by NWS Austin/San Antonio, TX

Home | Current Version | Previous Version | Text Only | Print | Product List | Glossary On
Versions: 1 2 3 4 5 6 7 8 9 10 11 12 13 14 15 16 17 18 19
000
FTUS44 KEWX 032339
TAFDRT
TAF
KDRT 032339Z 0400/0424 13015KT P6SM SCT060
     FM040100 12010KT P6SM FEW050
     FM041000 11009KT P6SM BKN015
     FM041300 11009KT P6SM OVC008
     FM041500 13009KT P6SM OVC015
     FM041700 14012KT P6SM SCT030
     FM042000 13015KT P6SM SCT050=

USA.gov is the U.S. government's official web portal to all federal, state and local government web resources and services.